Time;durP1;ratioP1;P1;durP2;ratioP2;P2;SDS_P1;SDS_P2;PMS_P1;PMS_P2;Temp;Humidity;BMP_temperature;BMP_pressure;BME280_temperature;BME280_humidity;BME280_pressure;Samples;Min_cycle;Max_cycle;Signal;HPM_P1;HPM_P2
2021/01/14 00:01:47;;;;;;;18.33;10.90;;;;;;;-1.57;72.36;98198.27;1629392;85;21243;-56
2021/01/14 00:04:14;;;;;;;20.30;10.87;;;;;;;-1.56;72.45;98212.34;1633787;85;22354;-56
2021/01/14 00:06:42;;;;;;;20.00;11.87;;;;;;;-1.56;72.50;98206.61;1642108;84;21250;-56
2021/01/14 00:09:10;;;;;;;22.23;11.90;;;;;;;-1.57;72.57;98201.37;1623962;86;21467;-57
2021/01/14 00:11:37;;;;;;;20.87;12.67;;;;;;;-1.58;72.64;98199.63;1653755;84;21181;-56
2021/01/14 00:14:04;;;;;;;19.07;11.37;;;;;;;-1.57;72.75;98200.05;1597112;88;21204;-57
2021/01/14 00:16:32;;;;;;;22.03;12.07;;;;;;;-1.57;72.69;98199.59;1653381;84;21481;-56
2021/01/14 00:18:59;;;;;;;23.63;13.50;;;;;;;-1.59;72.76;98196.13;1652270;84;21775;-56
2021/01/14 00:21:26;;;;;;;23.53;12.63;;;;;;;-1.59;72.84;98196.13;1656156;84;21182;-56
2021/01/14 00:23:53;;;;;;;20.33;12.37;;;;;;;-1.61;72.76;98192.64;1654045;84;21229;-56
2021/01/14 00:26:21;;;;;;;25.93;12.63;;;;;;;-1.65;72.80;98196.28;1659522;84;21201;-56
2021/01/14 00:28:48;;;;;;;20.07;12.80;;;;;;;-1.66;72.89;98199.81;1606512;87;22420;-56
2021/01/14 00:31:15;;;;;;;25.80;13.57;;;;;;;-1.65;73.06;98205.52;1597914;87;21235;-56
2021/01/14 00:33:43;;;;;;;26.37;14.63;;;;;;;-1.65;73.20;98204.64;1655497;84;21576;-56
2021/01/14 00:36:10;;;;;;;24.50;14.13;;;;;;;-1.64;73.25;98205.06;1600258;88;21247;-56
2021/01/14 00:38:38;;;;;;;24.63;12.60;;;;;;;-1.64;73.29;98204.61;1656867;84;21543;-56
2021/01/14 00:41:06;;;;;;;26.60;14.73;;;;;;;-1.63;73.38;98207.67;1655601;84;21981;-56
2021/01/14 00:43:33;;;;;;;19.93;13.60;;;;;;;-1.62;73.43;98205.91;1657654;84;21656;-56
2021/01/14 00:46:00;;;;;;;24.50;12.50;;;;;;;-1.61;73.52;98204.97;1655982;84;21500;-56
2021/01/14 00:48:27;;;;;;;27.10;14.87;;;;;;;-1.60;73.58;98197.02;1657323;84;21226;-57
2021/01/14 00:50:55;;;;;;;27.53;13.73;;;;;;;-1.58;73.56;98197.86;1657586;84;21508;-57
2021/01/14 00:53:22;;;;;;;26.03;13.97;;;;;;;-1.56;73.56;98199.14;1658449;84;21676;-56
2021/01/14 00:55:50;;;;;;;24.33;13.83;;;;;;;-1.56;73.58;98204.42;1659942;84;21595;-56
2021/01/14 00:58:17;;;;;;;22.13;12.77;;;;;;;-1.52;73.65;98207.38;1656679;84;21676;-56
2021/01/14 01:00:44;;;;;;;23.23;12.87;;;;;;;-1.49;73.65;98205.13;1658089;84;21501;-56
2021/01/14 01:03:11;;;;;;;20.83;12.33;;;;;;;-1.47;73.66;98210.80;1658605;84;21136;-56
2021/01/14 01:05:38;;;;;;;22.60;12.70;;;;;;;-1.45;73.67;98205.48;1659082;84;22238;-56
2021/01/14 01:08:06;;;;;;;21.43;11.30;;;;;;;-1.44;73.65;98208.51;1659926;85;21231;-57
2021/01/14 01:10:33;;;;;;;18.57;10.30;;;;;;;-1.45;73.59;98198.44;1655623;85;21176;-57
2021/01/14 01:13:00;;;;;;;21.70;11.87;;;;;;;-1.47;73.53;98200.69;1659213;85;21519;-56
2021/01/14 01:15:28;;;;;;;21.00;12.30;;;;;;;-1.48;73.56;98201.59;1655130;85;21176;-56
2021/01/14 01:17:55;;;;;;;20.50;11.10;;;;;;;-1.50;73.61;98200.30;1660701;85;21222;-56
2021/01/14 01:20:22;;;;;;;18.93;11.40;;;;;;;-1.49;73.63;98201.17;1635281;87;21686;-56
2021/01/14 01:22:49;;;;;;;19.93;11.23;;;;;;;-1.50;73.56;98195.48;1637156;87;21978;-56
2021/01/14 01:25:17;;;;;;;20.87;12.30;;;;;;;-1.51;73.63;98195.92;1633283;87;21144;-56
2021/01/14 01:27:44;;;;;;;24.00;13.47;;;;;;;-1.52;73.54;98201.66;1632623;85;21133;-57
2021/01/14 01:30:13;;;;;;;23.57;12.97;;;;;;;-1.50;73.58;98202.07;1622391;87;21410;-56
2021/01/14 01:32:42;;;;;;;25.83;14.23;;;;;;;-1.49;73.61;98202.04;1661915;85;21654;-56
2021/01/14 01:35:10;;;;;;;25.83;13.80;;;;;;;-1.48;73.62;98199.82;1658545;85;21220;-57
2021/01/14 01:37:37;;;;;;;26.13;16.13;;;;;;;-1.46;73.66;98195.37;1657303;85;21591;-56
2021/01/14 01:40:06;;;;;;;23.93;13.77;;;;;;;-1.45;73.63;98201.08;1656354;85;21255;-56
2021/01/14 01:42:33;;;;;;;24.73;12.93;;;;;;;-1.44;73.64;98205.87;1659457;85;21330;-57
2021/01/14 01:45:01;;;;;;;23.03;13.77;;;;;;;-1.46;73.59;98201.11;1658246;85;21574;-56
2021/01/14 01:47:33;;;;;;;25.63;14.30;;;;;;;-1.48;73.66;98197.63;1662259;85;21184;-56
2021/01/14 01:49:59;;;;;;;26.00;13.97;;;;;;;-1.49;73.61;98186.66;1662259;85;21247;-57
2021/01/14 01:52:26;;;;;;;26.93;13.47;;;;;;;-1.54;73.60;98195.57;1638601;85;21236;-57
2021/01/14 01:54:54;;;;;;;27.40;14.97;;;;;;;-1.59;73.62;98188.20;1654220;85;21240;-56
2021/01/14 01:57:21;;;;;;;23.33;13.50;;;;;;;-1.61;73.72;98192.64;1634056;87;21200;-56
2021/01/14 01:59:48;;;;;;;24.57;13.57;;;;;;;-1.61;73.68;98193.97;1657854;85;21271;-56
2021/01/14 02:02:28;;;;;;;26.93;15.10;;;;;;;-1.63;73.76;98201.07;1661124;85;21197;-57
2021/01/14 02:04:55;;;;;;;23.70;14.80;;;;;;;-1.61;73.81;98204.97;1659780;85;21216;-57
2021/01/14 02:07:52;;;;;;;24.40;14.20;;;;;;;-1.58;73.88;98200.95;1660953;85;22359;-57
2021/01/14 02:10:31;;;;;;;27.27;14.77;;;;;;;-1.55;73.91;98203.07;1657207;85;21244;-56
2021/01/14 02:13:24;;;;;;;27.20;16.07;;;;;;;-1.52;73.92;98208.25;1659272;85;21207;-56
2021/01/14 02:15:51;;;;;;;26.40;15.60;;;;;;;-1.46;73.94;98215.17;1659110;85;21198;-56
2021/01/14 02:18:19;;;;;;;25.87;15.43;;;;;;;-1.44;73.92;98208.51;1628467;87;21254;-57
2021/01/14 02:21:46;;;;;;;31.90;17.17;;;;;;;-1.37;73.89;98217.59;1825397;75;26909;-57
2021/01/14 02:24:22;;;;;;;33.33;18.27;;;;;;;-1.40;73.90;98220.73;1790831;77;20974;-57
2021/01/14 02:26:50;;;;;;;28.57;16.87;;;;;;;-1.37;73.82;98216.72;1797189;77;21365;-59
2021/01/14 02:29:17;;;;;;;29.47;16.17;;;;;;;-1.35;73.79;98218.39;1764612;77;21679;-55
2021/01/14 02:31:44;;;;;;;32.50;16.87;;;;;;;-1.35;73.83;98209.15;1791285;77;21170;-54
2021/01/14 02:34:12;;;;;;;29.50;17.30;;;;;;;-1.32;73.83;98209.53;1796086;77;21143;-53
2021/01/14 02:36:41;;;;;;;32.23;16.97;;;;;;;-1.31;73.77;98201.58;1790172;77;21214;-58
2021/01/14 02:39:08;;;;;;;31.47;17.40;;;;;;;-1.30;73.75;98199.81;1795243;77;21689;-53
2021/01/14 02:41:35;;;;;;;29.23;17.53;;;;;;;-1.30;73.65;98192.77;1781132;77;21219;-57
2021/01/14 02:44:03;;;;;;;36.50;22.63;;;;;;;-1.28;73.55;98193.59;1771343;78;21413;-57
2021/01/14 02:46:30;;;;;;;34.93;22.03;;;;;;;-1.29;73.47;98190.54;1767817;78;21197;-52
2021/01/14 02:49:08;;;;;;;44.23;24.13;;;;;;;-1.29;73.36;98188.35;1777329;78;21106;-53
2021/01/14 02:51:47;;;;;;;43.97;25.80;;;;;;;-1.28;73.34;98186.13;1769226;78;21254;-59
2021/01/14 02:54:15;;;;;;;40.63;25.03;;;;;;;-1.31;73.25;98184.42;1771121;78;21100;-55
2021/01/14 02:56:42;;;;;;;36.50;23.03;;;;;;;-1.31;73.18;98187.06;1774678;78;21593;-54
2021/01/14 02:59:09;;;;;;;33.20;20.27;;;;;;;-1.30;73.22;98182.20;1759771;78;21224;-53
2021/01/14 03:01:37;;;;;;;38.80;20.83;;;;;;;-1.32;73.23;98181.37;1772376;78;22032;-54
2021/01/14 03:04:05;;;;;;;32.80;20.60;;;;;;;-1.32;73.27;98189.28;1769869;78;21194;-55
2021/01/14 03:06:32;;;;;;;36.93;21.00;;;;;;;-1.32;73.27;98185.78;1775233;78;21258;-58
2021/01/14 03:08:59;;;;;;;35.20;19.70;;;;;;;-1.33;73.27;98187.55;1768594;78;21187;-54
2021/01/14 03:11:29;;;;;;;35.47;19.23;;;;;;;-1.31;73.26;98188.38;1767727;78;21170;-58
2021/01/14 03:13:56;;;;;;;29.67;18.50;;;;;;;-1.31;73.26;98191.48;1769847;78;21529;-56
2021/01/14 03:16:24;;;;;;;35.93;20.30;;;;;;;-1.31;73.34;98190.16;1770559;78;21438;-54
2021/01/14 03:18:51;;;;;;;35.13;21.10;;;;;;;-1.32;73.34;98187.97;1739764;80;21208;-55
2021/01/14 03:21:23;;;;;;;34.57;19.50;;;;;;;-1.29;73.40;98190.54;1715647;81;21186;-54
2021/01/14 03:23:50;;;;;;;32.40;19.43;;;;;;;-1.27;73.41;98194.43;1767683;79;21182;-57
2021/01/14 03:26:18;;;;;;;37.70;21.00;;;;;;;-1.27;73.31;98191.34;1767774;79;21221;-56
2021/01/14 03:28:45;;;;;;;35.80;20.13;;;;;;;-1.26;73.37;98196.17;1769935;79;21684;-54
2021/01/14 03:31:13;;;;;;;35.13;20.23;;;;;;;-1.26;73.48;98190.89;1775254;79;21649;-54
2021/01/14 03:33:41;;;;;;;35.53;20.43;;;;;;;-1.26;73.55;98190.89;1771058;79;21114;-55
2021/01/14 03:36:09;;;;;;;32.50;18.80;;;;;;;-1.27;73.58;98187.83;1771138;79;21592;-54
2021/01/14 03:38:36;;;;;;;34.47;19.63;;;;;;;-1.28;73.61;98191.41;1768631;79;21468;-53
2021/01/14 03:41:11;;;;;;;32.60;19.90;;;;;;;-1.26;73.63;98194.85;1770065;79;21216;-56
2021/01/14 03:43:38;;;;;;;35.97;19.60;;;;;;;-1.27;73.65;98194.43;1764968;79;21492;-54
2021/01/14 03:46:17;;;;;;;36.37;19.73;;;;;;;-1.30;73.70;98194.08;1738419;80;21509;-54
2021/01/14 03:48:45;;;;;;;32.77;18.73;;;;;;;-1.29;73.81;98194.50;1767010;79;21193;-54
2021/01/14 03:51:17;;;;;;;36.27;19.43;;;;;;;-1.27;73.85;98195.75;1769227;79;21127;-55
2021/01/14 03:53:52;;;;;;;39.77;20.90;;;;;;;-1.23;73.92;98198.30;1823544;76;26932;-54
2021/01/14 03:56:19;;;;;;;31.40;19.33;;;;;;;-1.24;73.92;98203.16;1795176;77;20954;-59
2021/01/14 03:58:46;;;;;;;34.83;18.60;;;;;;;-1.23;73.95;98203.57;1788881;77;21387;-55
2021/01/14 04:01:15;;;;;;;37.33;20.10;;;;;;;-1.21;73.99;98198.26;1796043;77;21553;-57
2021/01/14 04:03:42;;;;;;;34.97;19.73;;;;;;;-1.20;74.00;98193.39;1795544;77;20973;-55
2021/01/14 04:06:10;;;;;;;33.77;17.80;;;;;;;-1.19;73.98;98184.54;1794743;77;21385;-55
2021/01/14 04:08:38;;;;;;;35.93;19.80;;;;;;;-1.19;73.97;98185.86;1798829;77;20988;-53
2021/01/14 04:11:08;;;;;;;40.87;20.67;;;;;;;-1.20;73.87;98178.42;1739042;80;21399;-53
2021/01/14 04:13:35;;;;;;;37.40;21.23;;;;;;;-1.19;73.75;98181.90;1735052;79;21042;-52
2021/01/14 04:16:03;;;;;;;39.00;21.20;;;;;;;-1.21;73.67;98183.28;1738602;80;21310;-54
2021/01/14 04:18:30;;;;;;;35.23;20.30;;;;;;;-1.21;73.66;98179.78;1762338;79;21137;-58
2021/01/14 04:20:57;;;;;;;36.77;20.47;;;;;;;-1.21;73.66;98178.45;1740015;80;21110;-57
2021/01/14 04:23:25;;;;;;;43.60;23.70;;;;;;;-1.22;73.65;98169.67;1742538;79;21372;-55
2021/01/14 04:25:55;;;;;;;39.57;21.30;;;;;;;-1.22;73.63;98168.80;1795612;77;21143;-54
2021/01/14 04:28:22;;;;;;;52.20;23.47;;;;;;;-1.22;73.63;98175.40;1748409;77;21158;-58
2021/01/14 04:30:49;;;;;;;52.23;26.10;;;;;;;-1.25;73.53;98172.83;1793112;77;21591;-56
2021/01/14 04:33:16;;;;;;;49.97;24.53;;;;;;;-1.32;73.49;98168.62;1792456;77;21230;-54
2021/01/14 04:35:50;;;;;;;49.53;23.80;;;;;;;-1.37;73.66;98172.71;1793560;77;21193;-55
2021/01/14 04:38:18;;;;;;;55.73;26.33;;;;;;;-1.38;73.80;98172.75;1793032;77;21515;-58
2021/01/14 04:40:45;;;;;;;46.53;22.93;;;;;;;-1.37;73.85;98175.35;1758653;79;21433;-54
2021/01/14 04:43:13;;;;;;;54.43;25.40;;;;;;;-1.35;73.93;98181.88;1724631;79;21514;-56
2021/01/14 04:45:41;;;;;;;48.87;24.70;;;;;;;-1.34;74.04;98187.13;1773852;79;21143;-55
2021/01/14 04:48:12;;;;;;;52.23;25.70;;;;;;;-1.31;74.06;98195.44;1769971;79;21441;-58
2021/01/14 04:50:39;;;;;;;42.60;22.27;;;;;;;-1.30;74.08;98198.04;1772525;79;21215;-56
2021/01/14 04:53:07;;;;;;;35.63;20.47;;;;;;;-1.28;74.11;98198.01;1771297;79;21114;-59
2021/01/14 04:55:45;;;;;;;34.37;19.20;;;;;;;-1.26;74.11;98196.17;1771855;79;21208;-56
2021/01/14 04:58:17;;;;;;;33.63;19.23;;;;;;;-1.28;74.07;98196.23;1768390;79;21174;-57
2021/01/14 05:00:49;;;;;;;35.63;19.63;;;;;;;-1.27;74.13;98199.27;1770360;79;21819;-58
2021/01/14 05:03:30;;;;;;;36.23;18.83;;;;;;;-1.26;74.13;98196.17;1770958;79;21190;-55
2021/01/14 05:05:57;;;;;;;31.37;17.80;;;;;;;-1.26;74.16;98190.89;1772341;79;21099;-56
2021/01/14 05:08:29;;;;;;;36.43;19.10;;;;;;;-1.28;74.17;98185.68;1771651;79;21632;-54
2021/01/14 05:10:57;;;;;;;31.73;18.10;;;;;;;-1.28;74.13;98180.40;1772566;79;21210;-56
2021/01/14 05:13:29;;;;;;;34.23;18.80;;;;;;;-1.28;74.11;98184.36;1743061;79;21837;-56
2021/01/14 05:15:57;;;;;;;34.73;18.97;;;;;;;-1.28;74.19;98183.48;1748227;79;21520;-57
2021/01/14 05:18:24;;;;;;;36.53;19.57;;;;;;;-1.28;74.14;98183.48;1743503;80;22218;-56
2021/01/14 05:20:51;;;;;;;37.23;20.53;;;;;;;-1.28;74.14;98181.72;1741996;80;21165;-59
2021/01/14 05:23:20;;;;;;;32.50;19.50;;;;;;;-1.28;74.13;98190.95;1672963;81;21270;-54
2021/01/14 05:28:27;;;;;;;40.67;27.80;;;;;;;-1.24;74.12;98186.45;1849839;75;27849;-58
2021/01/14 05:31:15;;;;;;;32.27;19.10;;;;;;;-1.23;74.12;98196.97;1838091;76;21376;-58
2021/01/14 05:33:42;;;;;;;33.97;19.97;;;;;;;-1.15;74.08;98192.36;1840839;76;22199;-57
2021/01/14 05:36:10;;;;;;;31.07;17.63;;;;;;;-1.15;74.08;98187.08;1835280;76;21541;-56
2021/01/14 05:38:37;;;;;;;32.83;18.53;;;;;;;-1.15;74.06;98192.36;1843695;76;20925;-53
2021/01/14 05:41:19;;;;;;;31.87;18.37;;;;;;;-1.12;74.04;98193.19;1842605;76;20980;-53
2021/01/14 05:43:53;;;;;;;34.67;19.53;;;;;;;-1.13;74.01;98187.49;1840578;75;21162;-57
2021/01/14 05:46:25;;;;;;;34.70;19.90;;;;;;;-1.15;73.99;98192.80;1844153;76;21882;-55
2021/01/14 05:48:57;;;;;;;36.87;20.70;;;;;;;-1.17;73.99;98190.20;1849453;76;22163;-55
2021/01/14 05:51:26;;;;;;;41.40;22.63;;;;;;;-1.17;74.10;98195.48;1841259;76;21174;-55
2021/01/14 05:54:11;;;;;;;35.87;20.97;;;;;;;-1.18;74.11;98199.48;1848705;76;21159;-58
2021/01/14 05:56:46;;;;;;;38.53;20.53;;;;;;;-1.18;74.17;98205.62;1842299;76;21379;-56
2021/01/14 05:59:32;;;;;;;40.58;20.68;;;;;;;-1.17;74.18;98202.08;1840098;75;21363;-54
2021/01/14 06:02:00;;;;;;;41.03;21.73;;;;;;;-1.16;74.21;98202.95;1846751;75;21167;-54
2021/01/14 06:04:31;;;;;;;41.73;21.70;;;;;;;-1.15;74.17;98200.28;1846395;76;22240;-51
2021/01/14 06:07:04;;;;;;;43.70;23.50;;;;;;;-1.14;74.22;98193.23;1839362;76;21154;-52
2021/01/14 06:09:42;;;;;;;38.23;21.40;;;;;;;-1.14;74.24;98190.59;1837854;76;21129;-52
2021/01/14 06:12:10;;;;;;;39.43;19.93;;;;;;;-1.12;74.16;98201.98;1841726;76;21255;-54
2021/01/14 06:14:38;;;;;;;40.57;21.17;;;;;;;-1.13;74.16;98199.38;1843450;76;21186;-54
2021/01/14 06:17:09;;;;;;;35.67;19.20;;;;;;;-1.12;74.20;98198.47;1847002;76;21181;-55
2021/01/14 06:19:36;;;;;;;38.83;20.43;;;;;;;-1.12;74.24;98191.88;1845027;76;21155;-54
2021/01/14 06:22:04;;;;;;;40.47;22.30;;;;;;;-1.11;74.22;98193.61;1843311;76;21170;-53
2021/01/14 06:24:37;;;;;;;36.77;21.23;;;;;;;-1.13;74.20;98191.00;1849815;76;23594;-55
2021/01/14 06:27:09;;;;;;;39.07;21.90;;;;;;;-1.15;74.23;98189.72;1843734;76;21142;-53
2021/01/14 06:29:41;;;;;;;40.77;21.37;;;;;;;-1.13;74.16;98198.05;1826927;76;21177;-53
2021/01/14 06:32:17;;;;;;;37.63;20.77;;;;;;;-1.16;74.21;98189.75;1836109;76;21166;-53
2021/01/14 06:34:48;;;;;;;37.43;21.87;;;;;;;-1.16;74.26;98183.16;1832519;76;21129;-53
2021/01/14 06:37:20;;;;;;;35.97;21.27;;;;;;;-1.16;74.27;98185.34;1832181;76;22125;-54
2021/01/14 06:39:51;;;;;;;35.13;19.50;;;;;;;-1.18;74.29;98184.95;1834195;76;21167;-53
2021/01/14 06:42:29;;;;;;;34.47;19.17;;;;;;;-1.19;74.29;98184.09;1829680;76;21152;-54
2021/01/14 06:45:09;;;;;;;35.43;20.60;;;;;;;-1.19;74.35;98185.41;1784373;78;21538;-53
2021/01/14 06:47:44;;;;;;;40.87;21.63;;;;;;;-1.19;74.36;98183.22;1781857;78;21141;-53
2021/01/14 06:50:24;;;;;;;34.65;20.97;;;;;;;-1.18;74.43;98188.91;1773764;78;21420;-54
2021/01/14 06:53:03;;;;;;;33.83;19.07;;;;;;;-1.18;74.45;98196.84;1769776;78;21114;-56
2021/01/14 06:55:33;;;;;;;36.13;20.43;;;;;;;-1.17;74.45;98198.58;1771746;78;21104;-54
2021/01/14 06:58:11;;;;;;;34.83;19.63;;;;;;;-1.17;74.50;98199.44;1791926;78;21122;-54
2021/01/14 07:00:47;;;;;;;36.30;20.47;;;;;;;-1.15;74.53;98202.05;1765449;79;21122;-56
2021/01/14 07:03:23;;;;;;;36.63;19.27;;;;;;;-1.11;74.57;98200.20;1834199;76;26918;-55
2021/01/14 07:05:58;;;;;;;38.43;21.23;;;;;;;-1.15;74.60;98202.05;1793882;77;21148;-55
2021/01/14 07:08:31;;;;;;;37.35;20.37;;;;;;;-1.14;74.65;98203.78;1795814;77;23022;-56
2021/01/14 07:11:13;;;;;;;34.70;20.57;;;;;;;-1.12;74.65;98209.91;1809586;77;21195;-55
2021/01/14 07:13:48;;;;;;;38.73;20.90;;;;;;;-1.12;74.69;98215.19;1804268;77;22148;-54
2021/01/14 07:16:21;;;;;;;40.10;22.27;;;;;;;-1.10;74.79;98217.76;1803264;77;21011;-53
2021/01/14 07:18:49;;;;;;;41.07;23.63;;;;;;;-1.09;74.78;98211.13;1806898;77;20968;-54
2021/01/14 07:21:34;;;;;;;39.67;21.33;;;;;;;-1.07;74.82;98213.73;1795414;77;21786;-55
2021/01/14 07:24:19;;;;;;;40.12;23.02;;;;;;;-1.08;74.85;98214.18;1805139;77;21028;-54
2021/01/14 07:26:54;;;;;;;41.37;22.20;;;;;;;-1.07;74.92;98210.63;1801378;77;21005;-56
2021/01/14 07:29:21;;;;;;;46.95;27.00;;;;;;;-1.06;74.86;98209.73;1789769;77;28509;-54
2021/01/14 07:31:53;;;;;;;48.70;27.30;;;;;;;-1.07;74.91;98211.95;1796669;77;21567;-57
2021/01/14 07:34:33;;;;;;;49.33;26.10;;;;;;;-1.06;74.93;98213.70;1792535;77;21739;-54
2021/01/14 07:37:04;;;;;;;46.47;24.67;;;;;;;-1.06;74.97;98216.34;1805460;77;21183;-57
2021/01/14 07:39:57;;;;;;;45.77;26.43;;;;;;;-1.07;75.04;98211.95;1801502;77;21165;-54
2021/01/14 07:42:27;;;;;;;55.20;31.57;;;;;;;-1.06;75.07;98213.70;1772066;77;21194;-54
2021/01/14 07:45:00;;;;;;;75.50;38.47;;;;;;;-1.03;75.16;98217.59;1778199;78;21182;-54
2021/01/14 07:47:35;;;;;;;54.07;29.93;;;;;;;-1.01;75.11;98215.75;1781361;78;22131;-53
2021/01/14 07:50:26;;;;;;;48.97;26.93;;;;;;;-1.00;75.13;98220.13;1775523;78;22431;-52
2021/01/14 07:52:57;;;;;;;41.87;24.13;;;;;;;-0.99;75.17;98214.39;1768600;78;21122;-57
2021/01/14 07:55:32;;;;;;;52.63;30.43;;;;;;;-0.97;75.21;98216.55;1769862;78;21652;-55
2021/01/14 07:58:21;;;;;;;;;;;;;;;-0.97;75.23;98220.05;1770958;78;21170;-58
2021/01/14 08:01:09;;;;;;;47.70;25.73;;;;;;;-0.96;75.24;98227.08;1768434;78;22105;-58
2021/01/14 08:03:40;;;;;;;44.20;22.77;;;;;;;-0.97;75.32;98229.30;1782218;78;21213;-54
2021/01/14 08:09:06;;;;;;;49.23;32.83;;;;;;;-0.93;75.38;98220.38;1848767;75;28180;-58
2021/01/14 08:11:44;;;;;;;48.37;27.93;;;;;;;-0.91;75.30;98231.77;1842433;76;21386;-58
2021/01/14 08:14:20;;;;;;;49.53;26.87;;;;;;;-0.82;75.18;98235.94;1843667;76;21621;-55
2021/01/14 08:16:52;;;;;;;49.47;24.27;;;;;;;-0.82;75.24;98232.84;1843894;76;21044;-57
2021/01/14 08:19:34;;;;;;;47.93;25.83;;;;;;;-0.81;75.14;98240.32;1840342;76;21463;-55
2021/01/14 08:22:07;;;;;;;54.13;27.73;;;;;;;-0.82;75.27;98239.45;1846784;76;21044;-55
2021/01/14 08:24:41;;;;;;;54.93;26.90;;;;;;;-0.80;75.34;98236.32;1842968;76;21174;-54
2021/01/14 08:27:14;;;;;;;53.77;25.43;;;;;;;-0.79;75.37;98238.06;1845188;76;22262;-53
2021/01/14 08:29:58;;;;;;;52.37;26.00;;;;;;;-0.78;75.34;98237.61;1844223;76;21028;-53
2021/01/14 08:32:38;;;;;;;52.40;25.20;;;;;;;-0.79;75.33;98234.09;1840256;76;21148;-57
2021/01/14 08:35:11;;;;;;;47.90;25.30;;;;;;;-0.77;75.42;98245.95;1839570;76;21185;-56
2021/01/14 08:37:57;;;;;;;48.60;25.13;;;;;;;-0.75;75.48;98238.83;1840506;76;21505;-59
2021/01/14 08:40:28;;;;;;;47.30;24.97;;;;;;;-0.75;75.46;98240.14;1844682;76;22220;-57
2021/01/14 08:43:14;;;;;;;50.10;24.90;;;;;;;-0.76;75.46;98244.56;1813819;76;21520;-55
2021/01/14 08:45:55;;;;;;;46.53;24.93;;;;;;;-0.76;75.56;98239.27;1804803;77;21166;-58
2021/01/14 08:48:32;;;;;;;44.43;25.37;;;;;;;-0.76;75.62;98237.95;1798908;77;21110;-57
2021/01/14 08:51:02;;;;;;;53.70;27.53;;;;;;;-0.76;75.67;98233.98;1813490;77;21155;-57
2021/01/14 08:53:35;;;;;;;51.43;28.23;;;;;;;-0.75;75.80;98225.61;1806664;77;21650;-55
2021/01/14 08:56:17;;;;;;;;;;;;;;;-0.73;75.83;98235.70;1806657;77;21121;-54
2021/01/14 08:58:48;;;;;;;53.07;26.53;;;;;;;-0.72;75.87;98232.59;1810438;77;20279;-55
2021/01/14 09:01:20;;;;;;;44.80;26.10;;;;;;;-0.71;75.90;98227.73;1809358;77;21148;-56
2021/01/14 09:03:48;;;;;;;51.20;25.17;;;;;;;-0.69;76.01;98227.24;1809000;77;22303;-56
2021/01/14 09:06:32;;;;;;;49.30;26.20;;;;;;;-0.66;76.06;98229.78;1805029;77;21558;-59
2021/01/14 09:09:02;;;;;;;48.33;24.30;;;;;;;-0.63;76.16;98226.61;1811197;77;21189;-55
2021/01/14 09:11:30;;;;;;;52.30;27.40;;;;;;;-0.60;76.04;98222.57;1809887;77;21180;-56
2021/01/14 09:14:06;;;;;;;50.90;27.83;;;;;;;-0.57;76.05;98222.47;1741335;80;21178;-55
2021/01/14 09:16:34;;;;;;;58.83;30.23;;;;;;;-0.55;76.00;98226.39;1749000;80;21167;-55
2021/01/14 09:19:20;;;;;;;52.97;29.40;;;;;;;-0.56;76.02;98229.48;1810647;77;21656;-57
2021/01/14 09:21:48;;;;;;;52.27;28.23;;;;;;;-0.54;76.08;98226.81;1806760;77;21142;-55
2021/01/14 09:24:17;;;;;;;54.53;27.27;;;;;;;-0.52;76.14;98224.55;1809684;77;21735;-56
2021/01/14 09:26:49;;;;;;;50.07;27.90;;;;;;;-0.50;76.06;98221.83;1802715;77;21143;-55
2021/01/14 09:29:18;;;;;;;58.77;30.83;;;;;;;-0.49;76.04;98215.64;1803233;77;21771;-56
2021/01/14 09:31:45;;;;;;;62.73;31.43;;;;;;;-0.48;76.10;98226.17;1807182;77;21853;-54
2021/01/14 09:34:12;;;;;;;59.80;29.93;;;;;;;-0.48;76.09;98226.17;1802788;77;21182;-57
2021/01/14 09:36:40;;;;;;;61.40;31.20;;;;;;;-0.47;76.04;98220.44;1805254;77;21190;-58
2021/01/14 09:39:12;;;;;;;62.60;32.03;;;;;;;-0.48;76.04;98218.24;1805228;77;21514;-55
2021/01/14 09:41:39;;;;;;;62.03;30.93;;;;;;;-0.48;76.11;98219.56;1775256;77;21456;-59
2021/01/14 09:44:14;;;;;;;60.13;30.13;;;;;;;-0.47;76.11;98216.47;1806910;77;21526;-58
2021/01/14 09:46:47;;;;;;;54.13;29.50;;;;;;;-0.47;76.19;98214.70;1804830;77;22687;-55
2021/01/14 09:49:16;;;;;;;63.03;31.43;;;;;;;-0.45;76.21;98215.98;1803817;77;21104;-54
2021/01/14 09:51:45;;;;;;;60.37;30.63;;;;;;;-0.45;76.21;98221.27;1776172;78;21086;-54
2021/01/14 09:54:12;;;;;;;61.83;31.60;;;;;;;-0.45;76.19;98215.52;1807614;77;21139;-56
2021/01/14 09:56:44;;;;;;;60.53;30.87;;;;;;;-0.45;76.22;98218.17;1810158;77;22129;-56
2021/01/14 09:59:33;;;;;;;54.67;29.77;;;;;;;-0.45;76.22;98219.48;1804191;77;21134;-54
2021/01/14 10:02:29;;;;;;;59.90;30.40;;;;;;;-0.44;76.17;98217.27;1806055;77;21558;-58
2021/01/14 10:05:03;;;;;;;53.63;28.53;;;;;;;-0.44;76.15;98218.59;1779958;77;21092;-58
2021/01/14 10:07:34;;;;;;;56.57;30.90;;;;;;;-0.46;76.15;98213.78;1801622;77;21100;-55
2021/01/14 10:10:04;;;;;;;56.33;30.20;;;;;;;-0.45;76.15;98215.98;1809636;77;21507;-54
2021/01/14 10:12:33;;;;;;;56.23;29.43;;;;;;;-0.45;76.18;98221.27;1788214;77;21163;-55
2021/01/14 10:15:13;;;;;;;57.53;28.47;;;;;;;-0.46;76.20;98214.24;1812137;77;21178;-56
2021/01/14 10:17:41;;;;;;;58.93;29.67;;;;;;;-0.45;76.23;98214.66;1808484;77;21796;-55
2021/01/14 10:20:10;;;;;;;59.00;31.63;;;;;;;-0.47;76.25;98218.66;1808778;77;20977;-54
2021/01/14 10:22:51;;;;;;;59.70;31.00;;;;;;;-0.50;76.24;98211.26;1813728;77;21197;-56
2021/01/14 10:25:19;;;;;;;58.60;30.03;;;;;;;-0.58;76.32;98214.58;1809214;77;21146;-54
2021/01/14 10:28:03;;;;;;;62.13;31.93;;;;;;;-0.65;76.54;98207.28;1814801;77;21202;-58
2021/01/14 10:30:31;;;;;;;64.27;33.67;;;;;;;-0.63;76.66;98203.28;1814849;77;21119;-58
2021/01/14 10:33:03;;;;;;;68.27;34.00;;;;;;;-0.65;76.66;98207.73;1810743;77;22475;-57
2021/01/14 10:35:33;;;;;;;65.40;34.73;;;;;;;-0.70;76.80;98201.27;1806835;77;21274;-56
2021/01/14 10:38:13;;;;;;;61.47;32.27;;;;;;;-0.71;76.94;98195.57;1812295;77;21174;-59
2021/01/14 10:40:48;;;;;;;68.73;32.87;;;;;;;-0.67;77.01;98197.66;1806918;77;21480;-57
2021/01/14 10:43:34;;;;;;;60.27;33.83;;;;;;;-0.64;77.07;98193.62;1804500;77;21606;-55
2021/01/14 10:46:04;;;;;;;66.43;36.20;;;;;;;-0.60;77.05;98202.75;1804576;77;21092;-56
2021/01/14 10:48:38;;;;;;;78.27;39.30;;;;;;;-0.55;77.06;98199.52;1807868;77;21381;-57
2021/01/14 10:51:06;;;;;;;85.30;44.30;;;;;;;-0.50;77.06;98202.01;1810789;77;21367;-58
2021/01/14 10:53:36;;;;;;;91.00;46.77;;;;;;;-0.47;77.06;98195.32;1803745;77;21174;-55
2021/01/14 10:56:09;;;;;;;74.73;38.17;;;;;;;-0.43;76.97;98191.70;1809111;77;21150;-55
2021/01/14 10:58:40;;;;;;;68.23;34.50;;;;;;;-0.43;76.94;98185.95;1798231;77;21183;-56
2021/01/14 11:01:22;;;;;;;64.63;33.97;;;;;;;-0.40;76.88;98182.33;1813422;77;22062;-57
2021/01/14 11:03:49;;;;;;;63.23;32.93;;;;;;;-0.39;76.87;98182.30;1810347;77;21148;-54
2021/01/14 11:06:31;;;;;;;57.03;31.07;;;;;;;-0.38;76.85;98179.20;1805184;77;21174;-55
2021/01/14 11:09:00;;;;;;;57.70;30.17;;;;;;;-0.36;76.79;98185.31;1798851;77;21171;-53
2021/01/14 11:11:28;;;;;;;58.37;31.20;;;;;;;-0.35;76.78;98177.80;1775666;77;21163;-56
2021/01/14 11:13:55;;;;;;;55.53;29.93;;;;;;;-0.36;76.78;98174.73;1806504;77;21580;-54
2021/01/14 11:16:27;;;;;;;53.97;29.00;;;;;;;-0.34;76.78;98180.82;1795658;77;21166;-55
2021/01/14 11:18:57;;;;;;;58.67;29.80;;;;;;;-0.34;76.77;98179.50;1797328;77;21139;-55
2021/01/14 11:21:33;;;;;;;56.03;29.17;;;;;;;-0.32;76.81;98175.04;1812981;77;21592;-54
2021/01/14 11:24:01;;;;;;;52.30;28.70;;;;;;;-0.30;76.83;98175.87;1807653;77;21214;-55
2021/01/14 11:26:28;;;;;;;55.90;28.97;;;;;;;-0.28;76.82;98173.19;1800504;77;21212;-57
2021/01/14 11:28:56;;;;;;;57.50;29.83;;;;;;;-0.27;76.88;98172.27;1800980;77;21609;-53
2021/01/14 11:31:24;;;;;;;52.07;29.40;;;;;;;-0.25;76.85;98171.75;1803815;77;21171;-54
2021/01/14 11:33:51;;;;;;;55.17;30.17;;;;;;;-0.25;76.79;98171.30;1803324;77;21728;-54
2021/01/14 11:36:20;;;;;;;54.53;29.93;;;;;;;-0.25;76.77;98168.65;1799103;77;21194;-57
2021/01/14 11:38:49;;;;;;;62.00;33.07;;;;;;;-0.25;76.80;98168.65;1803111;77;21986;-54
2021/01/14 11:41:17;;;;;;;55.57;29.87;;;;;;;-0.24;76.80;98162.91;1809483;77;21114;-53
2021/01/14 11:43:45;;;;;;;51.63;29.07;;;;;;;-0.25;76.72;98166.46;1803126;77;21749;-58